Flight Information

DEPARTURE
MESQUITE, NV
Elevation:
1978
Runways:
2/20 - 5121x75 - ASPH-F
H1 - 20x20 - CONC-G
CTAF:
122.800
DESTINATION
CHIRIACO SUMMIT, CA
Elevation:
1710
TPA:
2710 (est.)
Runways:
6/24 - 4000x50 - ASPH-E
CTAF:
122.900


206.6 NM204° True-14° Var189° HDG

Flight Plan:
(click to file on line)

1. Type
2. Aircraft Identification
3. Aircraft Type / Special Equipment
4. True Airspeed
kts
5. Departure Airport
(ICAO code)
6. Arriving Airport
(ICAO code)
7. Cruising Altitude
ft
8. Alternate Airport
(ICAO code)
9. Route of Flight
10. Remarks


00:00:00 Departure ATIS: Destination ATIS:

Clearance Limit:
Route:
Altitude: Expect in minutes
Frequency:
Transponder: (7500 Hijack / 7600 Lost Comms / 7700 Emergency)


KSGU 181356Z AUTO 00000KT 10SM CLR 24/18 A3004 RMK AO2 SLP138 T02390178
Time: 2022-08-18T13:56:00Z
1660833489
Winds: calm
Visibility: 10.0 sm
Clouds (AGL): CLR
Temperature: 23.9 C
Dew Point: 17.8 C
Pressure: 30.041338 in Hgbr

KTRM 181352Z AUTO 00000KT 10SM CLR 28/23 A2981 RMK AO2 SLP099 T02830228
Time: 2022-08-18T13:52:00Z
1660833491
Winds: calm
Visibility: 10.0 sm
Clouds (AGL): CLR
Temperature: 28.3 C
Dew Point: 22.8 C
Pressure: 29.811024 in Hgbr


Notes:

Data extracted from FAA Digital Chart Supplement. Effective: 0901Z Thursday, 27 JAN 2022 to 0900z Thursday, 24 MAR 2022
Current ATIS data is provided courtisy of PilotEdge.